sensor_id;sensor_type;location;lat;lon;timestamp;pressure;altitude;pressure_sealevel;temperature;humidity
52935;BME280;38802;50.198;19.796;2023-07-29T00:02:23;95665.54;;;17.00;86.44
52935;BME280;38802;50.198;19.796;2023-07-29T00:04:51;95664.39;;;16.96;86.85
52935;BME280;38802;50.198;19.796;2023-07-29T00:07:19;95663.77;;;16.96;86.98
52935;BME280;38802;50.198;19.796;2023-07-29T00:09:46;95662.99;;;16.98;86.86
52935;BME280;38802;50.198;19.796;2023-07-29T00:12:14;95666.71;;;16.97;87.01
52935;BME280;38802;50.198;19.796;2023-07-29T00:14:42;95667.81;;;16.95;86.97
52935;BME280;38802;50.198;19.796;2023-07-29T00:17:11;95665.63;;;16.88;86.60
52935;BME280;38802;50.198;19.796;2023-07-29T00:19:39;95666.10;;;16.86;86.89
52935;BME280;38802;50.198;19.796;2023-07-29T00:22:07;95666.88;;;16.81;86.79
52935;BME280;38802;50.198;19.796;2023-07-29T00:24:36;95668.53;;;16.73;86.86
52935;BME280;38802;50.198;19.796;2023-07-29T00:27:04;95669.17;;;16.67;86.96
52935;BME280;38802;50.198;19.796;2023-07-29T00:29:32;95672.70;;;16.64;86.95
52935;BME280;38802;50.198;19.796;2023-07-29T00:32:01;95670.94;;;16.61;87.12
52935;BME280;38802;50.198;19.796;2023-07-29T00:34:29;95665.08;;;16.58;87.30
52935;BME280;38802;50.198;19.796;2023-07-29T00:36:58;95665.61;;;16.57;87.39
52935;BME280;38802;50.198;19.796;2023-07-29T00:39:26;95663.03;;;16.55;87.51
52935;BME280;38802;50.198;19.796;2023-07-29T00:41:54;95666.16;;;16.55;87.65
52935;BME280;38802;50.198;19.796;2023-07-29T00:44:22;95667.45;;;16.54;87.69
52935;BME280;38802;50.198;19.796;2023-07-29T00:46:52;95668.04;;;16.54;87.95
52935;BME280;38802;50.198;19.796;2023-07-29T00:49:21;95667.08;;;16.54;88.04
52935;BME280;38802;50.198;19.796;2023-07-29T00:51:49;95669.48;;;16.55;88.35
52935;BME280;38802;50.198;19.796;2023-07-29T00:54:17;95671.07;;;16.54;88.31
52935;BME280;38802;50.198;19.796;2023-07-29T00:56:45;95671.10;;;16.53;88.34
52935;BME280;38802;50.198;19.796;2023-07-29T00:59:13;95668.94;;;16.52;88.31
52935;BME280;38802;50.198;19.796;2023-07-29T01:01:42;95665.84;;;16.50;88.43
52935;BME280;38802;50.198;19.796;2023-07-29T01:04:10;95667.16;;;16.49;88.75
52935;BME280;38802;50.198;19.796;2023-07-29T01:06:53;95668.08;;;16.47;88.87
52935;BME280;38802;50.198;19.796;2023-07-29T01:09:33;95665.61;;;16.48;88.91
52935;BME280;38802;50.198;19.796;2023-07-29T01:12:08;95663.41;;;16.49;88.99
52935;BME280;38802;50.198;19.796;2023-07-29T01:17:17;95665.81;;;16.52;89.15
52935;BME280;38802;50.198;19.796;2023-07-29T01:19:59;95668.05;;;16.52;89.35
52935;BME280;38802;50.198;19.796;2023-07-29T01:22:29;95668.27;;;16.53;89.46
52935;BME280;38802;50.198;19.796;2023-07-29T01:24:59;95668.23;;;16.54;89.47
52935;BME280;38802;50.198;19.796;2023-07-29T01:27:27;95668.70;;;16.54;89.52
52935;BME280;38802;50.198;19.796;2023-07-29T01:29:56;95667.38;;;16.53;89.63
52935;BME280;38802;50.198;19.796;2023-07-29T01:35:33;95663.77;;;16.58;89.89
52935;BME280;38802;50.198;19.796;2023-07-29T01:38:24;95667.34;;;16.61;89.91
52935;BME280;38802;50.198;19.796;2023-07-29T01:40:52;95666.02;;;16.66;90.19
52935;BME280;38802;50.198;19.796;2023-07-29T01:43:21;95661.89;;;16.69;90.21
52935;BME280;38802;50.198;19.796;2023-07-29T01:45:53;95663.21;;;16.75;90.12
52935;BME280;38802;50.198;19.796;2023-07-29T01:48:21;95663.50;;;16.80;90.33
52935;BME280;38802;50.198;19.796;2023-07-29T01:50:50;95663.30;;;16.83;90.39
52935;BME280;38802;50.198;19.796;2023-07-29T01:53:18;95665.34;;;16.86;90.23
52935;BME280;38802;50.198;19.796;2023-07-29T01:55:47;95664.20;;;16.88;90.18
52935;BME280;38802;50.198;19.796;2023-07-29T01:58:16;95664.23;;;16.90;90.23
52935;BME280;38802;50.198;19.796;2023-07-29T02:00:47;95664.27;;;16.91;90.14
52935;BME280;38802;50.198;19.796;2023-07-29T02:03:16;95663.60;;;16.92;90.16
52935;BME280;38802;50.198;19.796;2023-07-29T02:05:44;95659.81;;;16.93;90.16
52935;BME280;38802;50.198;19.796;2023-07-29T02:08:12;95656.80;;;16.95;90.23
52935;BME280;38802;50.198;19.796;2023-07-29T02:10:40;95659.46;;;16.95;90.26
52935;BME280;38802;50.198;19.796;2023-07-29T02:13:08;95659.60;;;16.95;90.14
52935;BME280;38802;50.198;19.796;2023-07-29T02:15:36;95661.11;;;16.96;90.12
52935;BME280;38802;50.198;19.796;2023-07-29T02:18:04;95657.13;;;16.98;90.16
52935;BME280;38802;50.198;19.796;2023-07-29T02:20:34;95658.86;;;17.00;90.10
52935;BME280;38802;50.198;19.796;2023-07-29T02:23:02;95655.03;;;17.01;90.13
52935;BME280;38802;50.198;19.796;2023-07-29T02:25:30;95652.05;;;17.03;90.19
52935;BME280;38802;50.198;19.796;2023-07-29T02:27:58;95649.64;;;17.04;90.01
52935;BME280;38802;50.198;19.796;2023-07-29T02:30:26;95652.91;;;17.06;90.04
52935;BME280;38802;50.198;19.796;2023-07-29T02:32:54;95656.86;;;17.08;89.92
52935;BME280;38802;50.198;19.796;2023-07-29T02:35:23;95659.41;;;17.10;89.96
52935;BME280;38802;50.198;19.796;2023-07-29T02:37:51;95665.67;;;17.12;89.97
52935;BME280;38802;50.198;19.796;2023-07-29T02:40:20;95663.05;;;17.13;89.91
52935;BME280;38802;50.198;19.796;2023-07-29T02:42:48;95663.36;;;17.15;89.87
52935;BME280;38802;50.198;19.796;2023-07-29T02:45:16;95665.57;;;17.16;89.94
52935;BME280;38802;50.198;19.796;2023-07-29T02:47:44;95668.47;;;17.18;90.12
52935;BME280;38802;50.198;19.796;2023-07-29T02:50:12;95675.34;;;17.19;89.90
52935;BME280;38802;50.198;19.796;2023-07-29T02:52:40;95679.67;;;17.19;90.04
52935;BME280;38802;50.198;19.796;2023-07-29T02:55:08;95680.53;;;17.17;89.91
52935;BME280;38802;50.198;19.796;2023-07-29T02:57:36;95684.70;;;17.14;89.90
52935;BME280;38802;50.198;19.796;2023-07-29T03:00:05;95681.48;;;17.12;89.85
52935;BME280;38802;50.198;19.796;2023-07-29T03:02:35;95676.56;;;17.12;89.90
52935;BME280;38802;50.198;19.796;2023-07-29T03:05:03;95682.65;;;17.10;89.60
52935;BME280;38802;50.198;19.796;2023-07-29T03:07:32;95687.31;;;17.07;89.86
52935;BME280;38802;50.198;19.796;2023-07-29T03:10:00;95693.83;;;17.04;89.73
52935;BME280;38802;50.198;19.796;2023-07-29T03:12:28;95694.77;;;17.02;89.84
52935;BME280;38802;50.198;19.796;2023-07-29T03:14:56;95694.73;;;17.02;89.93
52935;BME280;38802;50.198;19.796;2023-07-29T03:17:24;95694.91;;;17.01;90.07
52935;BME280;38802;50.198;19.796;2023-07-29T03:19:52;95697.74;;;17.01;90.21
52935;BME280;38802;50.198;19.796;2023-07-29T03:22:20;95693.36;;;16.98;90.32
52935;BME280;38802;50.198;19.796;2023-07-29T03:24:48;95691.64;;;16.96;90.67
52935;BME280;38802;50.198;19.796;2023-07-29T03:27:16;95694.73;;;16.94;90.66
52935;BME280;38802;50.198;19.796;2023-07-29T03:29:44;95692.34;;;16.94;90.72
52935;BME280;38802;50.198;19.796;2023-07-29T03:32:12;95695.94;;;16.97;90.85
52935;BME280;38802;50.198;19.796;2023-07-29T03:34:40;95693.77;;;16.99;90.81
52935;BME280;38802;50.198;19.796;2023-07-29T03:37:08;95692.24;;;17.01;90.79
52935;BME280;38802;50.198;19.796;2023-07-29T03:39:36;95695.06;;;17.03;90.70
52935;BME280;38802;50.198;19.796;2023-07-29T03:42:05;95697.92;;;17.02;90.95
52935;BME280;38802;50.198;19.796;2023-07-29T03:44:33;95698.90;;;17.03;90.87
52935;BME280;38802;50.198;19.796;2023-07-29T03:47:01;95699.67;;;17.05;91.02
52935;BME280;38802;50.198;19.796;2023-07-29T03:49:29;95700.38;;;17.07;91.08
52935;BME280;38802;50.198;19.796;2023-07-29T03:51:58;95698.52;;;17.09;91.01
52935;BME280;38802;50.198;19.796;2023-07-29T03:54:26;95698.80;;;17.09;91.22
52935;BME280;38802;50.198;19.796;2023-07-29T03:56:54;95698.54;;;17.10;91.18
52935;BME280;38802;50.198;19.796;2023-07-29T03:59:22;95697.31;;;17.10;91.26
52935;BME280;38802;50.198;19.796;2023-07-29T04:01:51;95701.20;;;17.10;91.40
52935;BME280;38802;50.198;19.796;2023-07-29T04:04:19;95701.80;;;17.09;91.44
52935;BME280;38802;50.198;19.796;2023-07-29T04:06:48;95699.66;;;17.10;91.49
52935;BME280;38802;50.198;19.796;2023-07-29T04:09:16;95703.91;;;17.09;91.49
52935;BME280;38802;50.198;19.796;2023-07-29T04:11:44;95704.33;;;17.07;91.62
52935;BME280;38802;50.198;19.796;2023-07-29T04:14:12;95705.77;;;17.07;91.82
52935;BME280;38802;50.198;19.796;2023-07-29T04:16:40;95710.12;;;17.07;91.57
52935;BME280;38802;50.198;19.796;2023-07-29T04:19:08;95708.48;;;17.09;91.52
52935;BME280;38802;50.198;19.796;2023-07-29T04:21:36;95705.98;;;17.10;91.54
52935;BME280;38802;50.198;19.796;2023-07-29T04:24:04;95707.40;;;17.12;91.76
52935;BME280;38802;50.198;19.796;2023-07-29T04:26:32;95708.13;;;17.15;91.74
52935;BME280;38802;50.198;19.796;2023-07-29T04:29:01;95708.73;;;17.13;91.76
52935;BME280;38802;50.198;19.796;2023-07-29T04:31:29;95709.70;;;17.12;91.69
52935;BME280;38802;50.198;19.796;2023-07-29T04:33:59;95709.29;;;17.14;91.84
52935;BME280;38802;50.198;19.796;2023-07-29T04:36:27;95710.63;;;17.15;91.61
52935;BME280;38802;50.198;19.796;2023-07-29T04:38:55;95710.16;;;17.16;91.81
52935;BME280;38802;50.198;19.796;2023-07-29T04:41:23;95710.56;;;17.21;91.81
52935;BME280;38802;50.198;19.796;2023-07-29T04:43:51;95711.84;;;17.25;91.87
52935;BME280;38802;50.198;19.796;2023-07-29T04:46:20;95707.18;;;17.31;92.07
52935;BME280;38802;50.198;19.796;2023-07-29T04:48:48;95703.16;;;17.37;91.97
52935;BME280;38802;50.198;19.796;2023-07-29T04:51:16;95704.21;;;17.45;92.22
52935;BME280;38802;50.198;19.796;2023-07-29T04:53:45;95700.13;;;17.55;92.29
52935;BME280;38802;50.198;19.796;2023-07-29T04:56:13;95700.27;;;17.65;92.19
52935;BME280;38802;50.198;19.796;2023-07-29T04:58:45;95707.11;;;17.77;92.11
52935;BME280;38802;50.198;19.796;2023-07-29T05:01:13;95713.77;;;17.94;92.36
52935;BME280;38802;50.198;19.796;2023-07-29T05:03:41;95717.33;;;18.14;92.46
52935;BME280;38802;50.198;19.796;2023-07-29T05:06:09;95725.77;;;18.34;92.43
52935;BME280;38802;50.198;19.796;2023-07-29T05:08:37;95725.34;;;18.47;92.22
52935;BME280;38802;50.198;19.796;2023-07-29T05:11:05;95736.71;;;18.52;91.79
52935;BME280;38802;50.198;19.796;2023-07-29T05:13:33;95737.20;;;18.52;91.42
52935;BME280;38802;50.198;19.796;2023-07-29T05:16:01;95735.14;;;18.53;91.36
52935;BME280;38802;50.198;19.796;2023-07-29T05:18:30;95733.52;;;18.61;91.48
52935;BME280;38802;50.198;19.796;2023-07-29T05:20:58;95732.31;;;18.78;91.47
52935;BME280;38802;50.198;19.796;2023-07-29T05:23:27;95729.11;;;18.98;91.62
52935;BME280;38802;50.198;19.796;2023-07-29T05:25:55;95728.59;;;19.22;91.46
52935;BME280;38802;50.198;19.796;2023-07-29T05:28:23;95730.73;;;19.47;91.41
52935;BME280;38802;50.198;19.796;2023-07-29T05:30:52;95727.05;;;19.71;90.93
52935;BME280;38802;50.198;19.796;2023-07-29T05:33:20;95726.36;;;19.89;90.63
52935;BME280;38802;50.198;19.796;2023-07-29T05:35:49;95727.11;;;20.04;90.39
52935;BME280;38802;50.198;19.796;2023-07-29T05:38:17;95729.48;;;20.22;90.23
52935;BME280;38802;50.198;19.796;2023-07-29T05:40:45;95726.03;;;20.41;89.84
52935;BME280;38802;50.198;19.796;2023-07-29T05:43:16;95731.35;;;20.61;89.38
52935;BME280;38802;50.198;19.796;2023-07-29T05:45:44;95728.82;;;20.79;88.90
52935;BME280;38802;50.198;19.796;2023-07-29T05:48:12;95729.30;;;20.91;88.26
52935;BME280;38802;50.198;19.796;2023-07-29T05:50:40;95731.91;;;21.02;87.70
52935;BME280;38802;50.198;19.796;2023-07-29T05:53:08;95728.69;;;21.12;87.45
52935;BME280;38802;50.198;19.796;2023-07-29T05:55:37;95723.73;;;21.21;86.98
52935;BME280;38802;50.198;19.796;2023-07-29T05:58:05;95725.67;;;21.34;86.76
52935;BME280;38802;50.198;19.796;2023-07-29T06:00:33;95730.54;;;21.52;86.22
52935;BME280;38802;50.198;19.796;2023-07-29T06:03:01;95736.52;;;21.72;85.82
52935;BME280;38802;50.198;19.796;2023-07-29T06:05:30;95740.23;;;21.91;85.25
52935;BME280;38802;50.198;19.796;2023-07-29T06:07:58;95742.89;;;22.12;84.66
52935;BME280;38802;50.198;19.796;2023-07-29T06:10:26;95742.59;;;22.27;84.09
52935;BME280;38802;50.198;19.796;2023-07-29T06:12:55;95744.60;;;22.42;83.51
52935;BME280;38802;50.198;19.796;2023-07-29T06:15:23;95744.48;;;22.61;83.06
52935;BME280;38802;50.198;19.796;2023-07-29T06:17:51;95744.91;;;22.72;82.08
52935;BME280;38802;50.198;19.796;2023-07-29T06:20:23;95746.05;;;22.58;80.56
52935;BME280;38802;50.198;19.796;2023-07-29T06:22:51;95751.98;;;22.46;80.95
52935;BME280;38802;50.198;19.796;2023-07-29T06:25:19;95747.98;;;22.37;80.64
52935;BME280;38802;50.198;19.796;2023-07-29T06:27:48;95747.58;;;22.35;80.51
52935;BME280;38802;50.198;19.796;2023-07-29T06:30:16;95744.52;;;22.52;80.79
52935;BME280;38802;50.198;19.796;2023-07-29T06:32:44;95743.55;;;22.74;80.20
52935;BME280;38802;50.198;19.796;2023-07-29T06:35:12;95746.43;;;22.81;79.87
52935;BME280;38802;50.198;19.796;2023-07-29T06:37:40;95750.55;;;22.81;79.61
52935;BME280;38802;50.198;19.796;2023-07-29T06:40:08;95749.33;;;22.78;78.96
52935;BME280;38802;50.198;19.796;2023-07-29T06:42:36;95747.85;;;22.80;78.88
52935;BME280;38802;50.198;19.796;2023-07-29T06:45:05;95746.77;;;22.91;78.52
52935;BME280;38802;50.198;19.796;2023-07-29T06:47:33;95744.48;;;23.08;78.70
52935;BME280;38802;50.198;19.796;2023-07-29T06:50:01;95742.49;;;23.29;78.28
52935;BME280;38802;50.198;19.796;2023-07-29T06:52:32;95742.70;;;23.52;77.70
52935;BME280;38802;50.198;19.796;2023-07-29T06:55:03;95742.05;;;23.74;77.31
52935;BME280;38802;50.198;19.796;2023-07-29T06:57:34;95739.54;;;23.85;76.10
52935;BME280;38802;50.198;19.796;2023-07-29T07:00:03;95745.31;;;23.97;75.93
52935;BME280;38802;50.198;19.796;2023-07-29T07:02:32;95745.05;;;24.13;75.66
52935;BME280;38802;50.198;19.796;2023-07-29T07:05:01;95747.70;;;24.30;75.47
52935;BME280;38802;50.198;19.796;2023-07-29T07:07:40;95753.39;;;24.48;75.47
52935;BME280;38802;50.198;19.796;2023-07-29T07:10:09;95753.31;;;24.65;74.25
52935;BME280;38802;50.198;19.796;2023-07-29T07:12:45;95754.42;;;24.76;73.95
52935;BME280;38802;50.198;19.796;2023-07-29T07:15:14;95756.35;;;24.85;73.41
52935;BME280;38802;50.198;19.796;2023-07-29T07:18:19;95755.86;;;24.96;72.68
52935;BME280;38802;50.198;19.796;2023-07-29T07:20:52;95753.64;;;25.01;72.03
52935;BME280;38802;50.198;19.796;2023-07-29T07:30:17;95746.56;;;25.49;70.26
52935;BME280;38802;50.198;19.796;2023-07-29T07:33:05;95748.23;;;25.48;69.52
52935;BME280;38802;50.198;19.796;2023-07-29T07:35:40;95746.50;;;25.48;69.18
52935;BME280;38802;50.198;19.796;2023-07-29T07:38:21;95747.52;;;25.37;69.33
52935;BME280;38802;50.198;19.796;2023-07-29T07:40:56;95750.52;;;25.22;69.17
52935;BME280;38802;50.198;19.796;2023-07-29T07:43:24;95750.38;;;25.11;69.25
52935;BME280;38802;50.198;19.796;2023-07-29T07:46:03;95752.70;;;25.00;69.55
52935;BME280;38802;50.198;19.796;2023-07-29T07:48:31;95756.30;;;25.01;69.70
52935;BME280;38802;50.198;19.796;2023-07-29T07:51:25;95755.40;;;25.07;69.70
52935;BME280;38802;50.198;19.796;2023-07-29T07:54:10;95755.65;;;25.18;69.20
52935;BME280;38802;50.198;19.796;2023-07-29T07:56:38;95753.96;;;25.36;69.00
52935;BME280;38802;50.198;19.796;2023-07-29T07:59:07;95753.02;;;25.53;68.65
52935;BME280;38802;50.198;19.796;2023-07-29T08:01:37;95746.11;;;25.71;68.25
52935;BME280;38802;50.198;19.796;2023-07-29T08:04:06;95747.38;;;25.85;67.70
52935;BME280;38802;50.198;19.796;2023-07-29T08:06:34;95746.48;;;26.00;67.22
52935;BME280;38802;50.198;19.796;2023-07-29T08:09:05;95743.54;;;26.11;66.34
52935;BME280;38802;50.198;19.796;2023-07-29T08:11:33;95739.27;;;26.19;65.09
52935;BME280;38802;50.198;19.796;2023-07-29T08:14:01;95734.06;;;26.19;65.30
52935;BME280;38802;50.198;19.796;2023-07-29T08:16:30;95733.89;;;26.25;66.02
52935;BME280;38802;50.198;19.796;2023-07-29T08:18:58;95740.02;;;26.23;64.53
52935;BME280;38802;50.198;19.796;2023-07-29T08:21:27;95739.88;;;26.15;65.47
52935;BME280;38802;50.198;19.796;2023-07-29T08:23:55;95738.17;;;26.10;64.68
52935;BME280;38802;50.198;19.796;2023-07-29T08:26:23;95743.80;;;25.94;65.19
52935;BME280;38802;50.198;19.796;2023-07-29T08:28:51;95745.25;;;25.73;65.23
52935;BME280;38802;50.198;19.796;2023-07-29T08:31:22;95742.45;;;25.51;65.09
52935;BME280;38802;50.198;19.796;2023-07-29T08:33:50;95745.89;;;25.36;65.44
52935;BME280;38802;50.198;19.796;2023-07-29T08:36:19;95745.89;;;25.41;65.46
52935;BME280;38802;50.198;19.796;2023-07-29T08:38:47;95743.30;;;25.55;64.72
52935;BME280;38802;50.198;19.796;2023-07-29T08:41:31;95741.21;;;25.72;64.58
52935;BME280;38802;50.198;19.796;2023-07-29T08:44:12;95738.45;;;25.86;64.36
52935;BME280;38802;50.198;19.796;2023-07-29T08:47:05;95732.72;;;26.01;64.26
52935;BME280;38802;50.198;19.796;2023-07-29T08:49:33;95728.48;;;26.07;63.46
52935;BME280;38802;50.198;19.796;2023-07-29T08:52:02;95721.67;;;26.18;63.43
52935;BME280;38802;50.198;19.796;2023-07-29T08:54:31;95726.09;;;26.31;61.51
52935;BME280;38802;50.198;19.796;2023-07-29T08:57:00;95720.98;;;26.26;61.71
52935;BME280;38802;50.198;19.796;2023-07-29T08:59:29;95717.33;;;26.23;61.81
52935;BME280;38802;50.198;19.796;2023-07-29T09:01:57;95720.47;;;26.37;62.02
52935;BME280;38802;50.198;19.796;2023-07-29T09:04:26;95719.66;;;26.49;61.17
52935;BME280;38802;50.198;19.796;2023-07-29T09:06:55;95715.98;;;26.42;60.11
52935;BME280;38802;50.198;19.796;2023-07-29T09:09:25;95714.06;;;26.22;59.33
52935;BME280;38802;50.198;19.796;2023-07-29T09:11:53;95716.94;;;26.01;60.56
52935;BME280;38802;50.198;19.796;2023-07-29T09:14:24;95721.33;;;25.94;60.66
52935;BME280;38802;50.198;19.796;2023-07-29T09:16:53;95718.09;;;25.98;61.19
52935;BME280;38802;50.198;19.796;2023-07-29T09:19:25;95712.99;;;26.12;61.45
52935;BME280;38802;50.198;19.796;2023-07-29T09:21:54;95715.62;;;26.31;61.29
52935;BME280;38802;50.198;19.796;2023-07-29T09:24:22;95709.81;;;26.49;60.52
52935;BME280;38802;50.198;19.796;2023-07-29T09:26:51;95706.03;;;26.64;60.11
52935;BME280;38802;50.198;19.796;2023-07-29T09:29:22;95702.77;;;26.79;59.77
52935;BME280;38802;50.198;19.796;2023-07-29T09:31:51;95699.26;;;26.85;59.87
52935;BME280;38802;50.198;19.796;2023-07-29T09:34:20;95693.93;;;27.00;60.13
52935;BME280;38802;50.198;19.796;2023-07-29T09:36:50;95698.01;;;27.10;59.61
52935;BME280;38802;50.198;19.796;2023-07-29T09:39:23;95694.91;;;27.14;59.41
52935;BME280;38802;50.198;19.796;2023-07-29T09:41:51;95695.45;;;27.11;59.23
52935;BME280;38802;50.198;19.796;2023-07-29T09:44:19;95691.92;;;27.15;59.26
52935;BME280;38802;50.198;19.796;2023-07-29T09:46:47;95689.16;;;27.22;58.73
52935;BME280;38802;50.198;19.796;2023-07-29T09:49:15;95688.45;;;27.22;58.63
52935;BME280;38802;50.198;19.796;2023-07-29T09:51:43;95686.25;;;27.28;58.16
52935;BME280;38802;50.198;19.796;2023-07-29T09:54:12;95685.38;;;27.39;58.15
52935;BME280;38802;50.198;19.796;2023-07-29T09:57:01;95679.40;;;27.52;57.22
52935;BME280;38802;50.198;19.796;2023-07-29T09:59:34;95683.86;;;27.63;57.74
52935;BME280;38802;50.198;19.796;2023-07-29T10:02:02;95678.05;;;27.62;57.76
52935;BME280;38802;50.198;19.796;2023-07-29T10:04:30;95678.67;;;27.50;57.53
52935;BME280;38802;50.198;19.796;2023-07-29T10:07:01;95679.66;;;27.23;57.30
52935;BME280;38802;50.198;19.796;2023-07-29T10:09:31;95681.83;;;27.09;57.60
52935;BME280;38802;50.198;19.796;2023-07-29T10:11:59;95680.67;;;26.87;57.66
52935;BME280;38802;50.198;19.796;2023-07-29T10:14:30;95678.47;;;26.65;57.91
52935;BME280;38802;50.198;19.796;2023-07-29T10:16:59;95681.25;;;26.40;58.13
52935;BME280;38802;50.198;19.796;2023-07-29T10:19:29;95680.75;;;26.18;58.42
52935;BME280;38802;50.198;19.796;2023-07-29T10:21:59;95680.88;;;26.01;58.67
52935;BME280;38802;50.198;19.796;2023-07-29T10:24:32;95679.59;;;25.90;59.00
52935;BME280;38802;50.198;19.796;2023-07-29T10:27:01;95688.30;;;25.80;59.14
52935;BME280;38802;50.198;19.796;2023-07-29T10:29:31;95691.30;;;25.89;59.76
52935;BME280;38802;50.198;19.796;2023-07-29T10:32:02;95697.72;;;25.92;59.99
52935;BME280;38802;50.198;19.796;2023-07-29T10:34:32;95700.71;;;25.80;60.03
52935;BME280;38802;50.198;19.796;2023-07-29T10:37:05;95704.64;;;25.64;59.99
52935;BME280;38802;50.198;19.796;2023-07-29T10:39:39;95703.67;;;25.52;60.15
52935;BME280;38802;50.198;19.796;2023-07-29T10:42:10;95705.37;;;25.32;60.45
52935;BME280;38802;50.198;19.796;2023-07-29T10:47:15;95712.92;;;25.03;61.08
52935;BME280;38802;50.198;19.796;2023-07-29T10:49:45;95715.85;;;24.90;61.33
52935;BME280;38802;50.198;19.796;2023-07-29T10:52:14;95712.85;;;24.76;61.62
52935;BME280;38802;50.198;19.796;2023-07-29T10:54:47;95707.92;;;24.64;62.06
52935;BME280;38802;50.198;19.796;2023-07-29T10:57:34;95706.37;;;24.55;62.32
52935;BME280;38802;50.198;19.796;2023-07-29T11:00:04;95704.10;;;24.48;62.69
52935;BME280;38802;50.198;19.796;2023-07-29T11:02:37;95700.27;;;24.40;63.09
52935;BME280;38802;50.198;19.796;2023-07-29T11:05:07;95695.64;;;24.30;63.34
52935;BME280;38802;50.198;19.796;2023-07-29T11:07:48;95692.50;;;24.23;63.60
52935;BME280;38802;50.198;19.796;2023-07-29T11:10:16;95691.75;;;24.11;63.94
52935;BME280;38802;50.198;19.796;2023-07-29T11:12:49;95696.50;;;24.01;64.28
52935;BME280;38802;50.198;19.796;2023-07-29T11:15:22;95698.09;;;23.91;64.59
52935;BME280;38802;50.198;19.796;2023-07-29T11:20:20;95702.62;;;23.68;65.35
52935;BME280;38802;50.198;19.796;2023-07-29T11:22:50;95700.41;;;23.55;65.79
52935;BME280;38802;50.198;19.796;2023-07-29T11:25:26;95695.75;;;23.45;66.32
52935;BME280;38802;50.198;19.796;2023-07-29T11:28:14;95693.48;;;23.36;66.41
52935;BME280;38802;50.198;19.796;2023-07-29T11:34:49;95685.00;;;23.24;66.71
52935;BME280;38802;50.198;19.796;2023-07-29T11:37:17;95686.53;;;23.22;66.85
52935;BME280;38802;50.198;19.796;2023-07-29T11:39:45;95685.52;;;23.20;67.16
52935;BME280;38802;50.198;19.796;2023-07-29T11:42:23;95687.30;;;23.17;67.42
52935;BME280;38802;50.198;19.796;2023-07-29T11:44:53;95683.44;;;23.16;67.65
52935;BME280;38802;50.198;19.796;2023-07-29T11:47:21;95682.84;;;23.19;67.98
52935;BME280;38802;50.198;19.796;2023-07-29T11:50:25;95690.17;;;23.17;68.23
52935;BME280;38802;50.198;19.796;2023-07-29T11:52:54;95700.61;;;23.12;68.71
52935;BME280;38802;50.198;19.796;2023-07-29T11:55:22;95697.60;;;23.05;68.83
52935;BME280;38802;50.198;19.796;2023-07-29T11:57:51;95697.63;;;22.95;68.86
52935;BME280;38802;50.198;19.796;2023-07-29T12:00:20;95692.01;;;22.85;68.87
52935;BME280;38802;50.198;19.796;2023-07-29T12:02:50;95687.95;;;22.80;69.08
52935;BME280;38802;50.198;19.796;2023-07-29T12:05:18;95686.60;;;22.76;69.17
52935;BME280;38802;50.198;19.796;2023-07-29T12:07:49;95691.65;;;22.74;69.44
52935;BME280;38802;50.198;19.796;2023-07-29T12:10:17;95693.95;;;22.71;69.82
52935;BME280;38802;50.198;19.796;2023-07-29T12:13:07;95687.27;;;22.64;71.08
52935;BME280;38802;50.198;19.796;2023-07-29T12:15:38;95687.98;;;22.53;70.72
52935;BME280;38802;50.198;19.796;2023-07-29T12:18:08;95687.84;;;22.57;70.92
52935;BME280;38802;50.198;19.796;2023-07-29T12:20:36;95688.68;;;22.66;71.52
52935;BME280;38802;50.198;19.796;2023-07-29T12:23:04;95687.44;;;22.75;72.18
52935;BME280;38802;50.198;19.796;2023-07-29T12:25:34;95688.02;;;22.78;72.53
52935;BME280;38802;50.198;19.796;2023-07-29T12:28:06;95685.05;;;22.81;72.47
52935;BME280;38802;50.198;19.796;2023-07-29T12:30:41;95680.91;;;22.87;72.44
52935;BME280;38802;50.198;19.796;2023-07-29T12:33:10;95674.19;;;22.95;72.85
52935;BME280;38802;50.198;19.796;2023-07-29T12:35:38;95674.98;;;22.97;72.65
52935;BME280;38802;50.198;19.796;2023-07-29T12:38:06;95669.44;;;22.97;72.54
52935;BME280;38802;50.198;19.796;2023-07-29T12:40:37;95661.15;;;22.95;72.31
52935;BME280;38802;50.198;19.796;2023-07-29T12:43:06;95652.32;;;23.03;72.53
52935;BME280;38802;50.198;19.796;2023-07-29T12:45:37;95649.48;;;23.09;72.32
52935;BME280;38802;50.198;19.796;2023-07-29T12:48:40;95650.74;;;23.14;71.87
52935;BME280;38802;50.198;19.796;2023-07-29T12:51:10;95651.92;;;23.23;71.99
52935;BME280;38802;50.198;19.796;2023-07-29T12:53:44;95651.32;;;23.30;71.97
52935;BME280;38802;50.198;19.796;2023-07-29T12:56:12;95651.99;;;23.36;71.81
52935;BME280;38802;50.198;19.796;2023-07-29T12:58:40;95652.27;;;23.44;71.74
52935;BME280;38802;50.198;19.796;2023-07-29T13:01:08;95648.95;;;23.53;71.71
52935;BME280;38802;50.198;19.796;2023-07-29T13:03:37;95645.23;;;23.69;71.72
52935;BME280;38802;50.198;19.796;2023-07-29T13:06:05;95643.19;;;23.82;71.14
52935;BME280;38802;50.198;19.796;2023-07-29T13:08:33;95638.11;;;23.95;71.13
52935;BME280;38802;50.198;19.796;2023-07-29T13:11:02;95640.73;;;24.10;71.08
52935;BME280;38802;50.198;19.796;2023-07-29T13:13:31;95634.60;;;24.26;70.69
52935;BME280;38802;50.198;19.796;2023-07-29T13:16:04;95633.56;;;24.35;70.46
52935;BME280;38802;50.198;19.796;2023-07-29T13:18:32;95638.59;;;24.38;69.55
52935;BME280;38802;50.198;19.796;2023-07-29T13:21:05;95637.55;;;24.37;69.16
52935;BME280;38802;50.198;19.796;2023-07-29T13:23:33;95633.08;;;24.35;68.76
52935;BME280;38802;50.198;19.796;2023-07-29T13:26:02;95632.81;;;24.33;68.34
52935;BME280;38802;50.198;19.796;2023-07-29T13:28:30;95628.85;;;24.30;69.04